createdAt,value
2023-01-18T00:01:02.441Z,45.50
2023-01-18T00:03:33.519Z,42.20
2023-01-18T00:06:02.122Z,36.00
2023-01-18T00:08:30.997Z,37.40
2023-01-18T00:11:19.157Z,46.20
2023-01-18T00:13:47.782Z,37.70
2023-01-18T00:16:18.744Z,43.80
2023-01-18T00:18:54.439Z,48.50
2023-01-18T00:21:22.015Z,36.00
2023-01-18T00:23:49.572Z,42.40
2023-01-18T00:26:16.731Z,42.50
2023-01-18T00:28:43.772Z,33.70
2023-01-18T00:31:19.821Z,49.40
2023-01-18T00:33:49.109Z,42.70
2023-01-18T00:36:17.718Z,40.70
2023-01-18T00:38:51.807Z,54.60
2023-01-18T00:41:20.145Z,45.30
2023-01-18T00:43:47.469Z,43.30
2023-01-18T00:46:17.673Z,42.30
2023-01-18T00:48:45.013Z,44.80
2023-01-18T00:51:15.474Z,40.10
2023-01-18T00:53:44.939Z,43.90
2023-01-18T00:56:15.544Z,46.70
2023-01-18T00:58:43.291Z,45.90
2023-01-18T01:01:11.602Z,46.90
2023-01-18T01:03:58.063Z,44.50
2023-01-18T01:06:44.968Z,44.40
2023-01-18T01:09:17.458Z,46.90
2023-01-18T01:12:06.819Z,43.80
2023-01-18T01:14:55.081Z,38.20
2023-01-18T01:17:40.860Z,48.60
2023-01-18T01:20:28.493Z,49.70
2023-01-18T01:23:14.230Z,51.80
2023-01-18T01:26:00.565Z,49.30
2023-01-18T01:28:28.303Z,39.90
2023-01-18T01:31:00.741Z,43.20
2023-01-18T01:33:29.593Z,44.70
2023-01-18T01:35:58.954Z,39.10
2023-01-18T01:38:26.764Z,48.50
2023-01-18T01:41:06.868Z,49.60
2023-01-18T01:43:48.180Z,40.90
2023-01-18T01:46:48.692Z,32.00
2023-01-18T01:49:40.441Z,46.50
2023-01-18T01:52:15.551Z,49.50
2023-01-18T01:54:50.374Z,41.40
2023-01-18T01:57:22.067Z,49.20
2023-01-18T02:00:02.411Z,37.00
2023-01-18T02:02:40.940Z,38.10
2023-01-18T02:05:10.642Z,41.90
2023-01-18T02:07:37.847Z,38.30
2023-01-18T02:10:06.378Z,43.80
2023-01-18T02:12:36.735Z,37.80
2023-01-18T02:15:04.647Z,48.40
2023-01-18T02:17:38.778Z,40.90
2023-01-18T02:20:24.641Z,41.70
2023-01-18T02:23:10.787Z,39.80
2023-01-18T02:25:50.280Z,38.30
2023-01-18T02:28:37.849Z,37.20
2023-01-18T02:31:15.236Z,41.10
2023-01-18T02:34:19.984Z,37.90
2023-01-18T02:37:02.505Z,40.80
2023-01-18T02:39:58.634Z,49.30
2023-01-18T02:42:47.447Z,41.00
2023-01-18T02:45:44.448Z,38.10
2023-01-18T02:48:13.196Z,41.10
2023-01-18T02:50:40.840Z,41.00
2023-01-18T02:53:12.735Z,42.70
2023-01-18T02:55:53.114Z,43.50
2023-01-18T02:58:48.243Z,37.00
2023-01-18T03:01:27.216Z,44.40
2023-01-18T03:03:59.348Z,39.30
2023-01-18T03:06:29.466Z,38.10
2023-01-18T03:08:58.947Z,46.80
2023-01-18T03:12:08.895Z,45.20
2023-01-18T03:14:58.423Z,45.10
2023-01-18T03:17:36.477Z,35.30
2023-01-18T03:20:10.184Z,41.10
2023-01-18T03:22:57.628Z,39.40
2023-01-18T03:25:39.040Z,39.90
2023-01-18T03:28:28.726Z,44.00
2023-01-18T03:31:18.494Z,38.10
2023-01-18T03:33:52.247Z,43.90
2023-01-18T03:36:27.883Z,40.60
2023-01-18T03:39:01.359Z,44.30
2023-01-18T03:41:33.402Z,42.70
2023-01-18T03:44:06.944Z,42.10
2023-01-18T03:46:34.892Z,41.40
2023-01-18T03:49:02.504Z,44.60
2023-01-18T03:51:48.636Z,44.30
2023-01-18T03:54:24.020Z,34.10
2023-01-18T03:57:03.303Z,48.20
2023-01-18T03:59:35.549Z,46.80
2023-01-18T04:02:05.641Z,42.20
2023-01-18T04:04:32.907Z,42.50
2023-01-18T04:07:00.524Z,41.50
2023-01-18T04:09:27.778Z,41.60
2023-01-18T04:11:54.768Z,48.00
2023-01-18T04:14:22.344Z,50.90
2023-01-18T04:16:49.442Z,38.60
2023-01-18T04:19:17.569Z,60.10
2023-01-18T04:21:44.790Z,45.80
2023-01-18T04:24:12.152Z,46.10
2023-01-18T04:26:39.317Z,41.60
2023-01-18T04:29:06.451Z,46.90
2023-01-18T04:31:33.485Z,45.70
2023-01-18T04:34:00.744Z,40.20
2023-01-18T04:36:28.587Z,49.30
2023-01-18T04:38:56.151Z,46.50
2023-01-18T04:41:24.182Z,47.00
2023-01-18T04:43:51.190Z,45.20
2023-01-18T04:46:18.285Z,54.10
2023-01-18T04:48:50.092Z,48.10
2023-01-18T04:51:17.393Z,52.60
2023-01-18T04:53:45.378Z,54.90
2023-01-18T04:56:12.982Z,48.20
2023-01-18T04:58:40.109Z,51.10
2023-01-18T05:01:09.253Z,45.70
2023-01-18T05:03:38.462Z,45.50
2023-01-18T05:06:10.766Z,46.10
2023-01-18T05:08:41.180Z,53.30
2023-01-18T05:11:13.311Z,46.80
2023-01-18T05:13:41.557Z,49.40
2023-01-18T05:16:14.655Z,51.20
2023-01-18T05:18:42.550Z,48.20
2023-01-18T05:21:09.718Z,56.30
2023-01-18T05:23:36.820Z,49.30
2023-01-18T05:26:04.972Z,49.00
2023-01-18T05:28:32.008Z,46.50
2023-01-18T05:30:59.051Z,50.00
2023-01-18T05:33:26.024Z,52.20
2023-01-18T05:35:55.700Z,44.80
2023-01-18T05:38:23.685Z,41.90
2023-01-18T05:40:53.449Z,38.30
2023-01-18T05:43:22.734Z,44.20
2023-01-18T05:45:49.972Z,43.00
2023-01-18T05:48:18.206Z,51.10
2023-01-18T05:50:47.441Z,52.00
2023-01-18T05:53:20.305Z,40.40
2023-01-18T05:56:01.473Z,41.40
2023-01-18T05:58:29.358Z,47.60
2023-01-18T06:00:57.786Z,41.40
2023-01-18T06:03:25.691Z,38.00
2023-01-18T06:05:52.864Z,47.30
2023-01-18T06:08:21.041Z,45.80
2023-01-18T06:10:55.820Z,55.50
2023-01-18T06:13:24.251Z,48.30
2023-01-18T06:15:52.275Z,44.60
2023-01-18T06:18:19.307Z,45.50
2023-01-18T06:20:46.346Z,45.00
2023-01-18T06:23:13.470Z,38.70
2023-01-18T06:25:40.468Z,51.10
2023-01-18T06:28:07.740Z,40.50
2023-01-18T06:30:34.948Z,39.00
2023-01-18T06:33:06.928Z,47.40
2023-01-18T06:35:35.009Z,46.40
2023-01-18T06:38:04.275Z,42.60
2023-01-18T06:40:31.936Z,45.30
2023-01-18T06:42:59.226Z,44.70
2023-01-18T06:45:27.089Z,43.80
2023-01-18T06:47:54.101Z,43.90
2023-01-18T06:50:22.635Z,40.70
2023-01-18T06:52:49.759Z,45.00
2023-01-18T06:55:16.899Z,45.00
2023-01-18T06:57:43.916Z,57.10
2023-01-18T07:00:12.419Z,61.90
2023-01-18T07:02:39.536Z,47.20
2023-01-18T07:05:06.847Z,57.00
2023-01-18T07:07:33.904Z,53.70
2023-01-18T07:10:00.917Z,64.00
2023-01-18T07:12:27.935Z,67.30
2023-01-18T07:14:55.046Z,48.90
2023-01-18T07:17:22.096Z,45.00
2023-01-18T07:19:49.084Z,43.00
2023-01-18T07:22:16.085Z,47.50
2023-01-18T07:24:43.142Z,48.30
2023-01-18T07:27:10.230Z,47.40
2023-01-18T07:29:37.272Z,44.30
2023-01-18T07:32:04.628Z,54.70
2023-01-18T07:34:31.988Z,46.20
2023-01-18T07:36:59.100Z,48.10
2023-01-18T07:39:26.206Z,58.00
2023-01-18T07:41:53.231Z,48.50
2023-01-18T07:44:20.206Z,48.60
2023-01-18T07:46:47.384Z,53.10
2023-01-18T07:49:15.776Z,58.70
2023-01-18T07:51:42.934Z,52.20
2023-01-18T07:54:09.980Z,57.40
2023-01-18T07:56:37.777Z,53.10
2023-01-18T07:59:04.944Z,62.90
2023-01-18T08:01:32.620Z,55.60
2023-01-18T08:03:59.758Z,63.50
2023-01-18T08:06:27.470Z,51.70
2023-01-18T08:08:56.001Z,54.10
2023-01-18T08:11:23.749Z,66.70
2023-01-18T08:13:52.796Z,55.80
2023-01-18T08:16:20.265Z,52.50
2023-01-18T08:18:50.952Z,49.10
2023-01-18T08:21:18.206Z,55.40
2023-01-18T08:23:45.244Z,57.90
2023-01-18T08:26:13.939Z,54.50
2023-01-18T08:28:41.786Z,50.40
2023-01-18T08:31:15.777Z,53.20
2023-01-18T08:33:49.030Z,52.90
2023-01-18T08:36:19.018Z,59.00
2023-01-18T08:38:51.417Z,57.20
2023-01-18T08:43:51.215Z,65.60
2023-01-18T08:46:18.919Z,66.10
2023-01-18T08:48:50.628Z,57.80
2023-01-18T08:51:22.085Z,71.10
2023-01-18T08:53:54.704Z,59.00
2023-01-18T08:56:22.013Z,55.20
2023-01-18T08:58:49.286Z,53.40
2023-01-18T09:01:16.612Z,52.60
2023-01-18T09:03:45.118Z,46.10
2023-01-18T09:06:13.168Z,66.60
2023-01-18T09:08:40.515Z,70.20
2023-01-18T09:11:10.460Z,70.70
2023-01-18T09:13:54.629Z,57.40
2023-01-18T09:16:27.077Z,57.00
2023-01-18T09:18:56.584Z,56.70
2023-01-18T09:21:24.356Z,52.30
2023-01-18T09:23:51.489Z,55.60
2023-01-18T09:26:21.225Z,58.60
2023-01-18T09:28:52.515Z,58.10
2023-01-18T09:31:22.263Z,50.10
2023-01-18T09:33:53.611Z,54.00
2023-01-18T09:36:26.784Z,56.60
2023-01-18T09:38:55.525Z,56.30
2023-01-18T09:41:22.479Z,51.20
2023-01-18T09:43:54.000Z,55.00
2023-01-18T09:46:23.289Z,52.30
2023-01-18T09:48:56.152Z,50.40
2023-01-18T09:51:28.477Z,55.60
2023-01-18T09:54:23.700Z,49.20
2023-01-18T09:57:15.530Z,51.70
2023-01-18T09:59:55.598Z,58.60
2023-01-18T10:02:32.492Z,50.50
2023-01-18T10:05:05.437Z,50.20
2023-01-18T10:07:36.399Z,51.20
2023-01-18T10:10:05.067Z,54.10
2023-01-18T10:12:45.649Z,51.30
2023-01-18T10:15:20.485Z,54.40
2023-01-18T10:17:50.115Z,57.10
2023-01-18T10:20:34.104Z,48.40
2023-01-18T10:23:23.606Z,64.90
2023-01-18T10:25:56.437Z,71.90
2023-01-18T10:28:39.300Z,55.90
2023-01-18T10:31:20.916Z,55.40
2023-01-18T10:33:53.795Z,54.70
2023-01-18T10:36:26.476Z,63.50
2023-01-18T10:38:55.723Z,59.90
2023-01-18T10:41:32.419Z,60.10
2023-01-18T10:43:59.555Z,54.50
2023-01-18T10:46:26.680Z,57.00
2023-01-18T10:48:57.418Z,56.70
2023-01-18T10:51:32.448Z,68.20
2023-01-18T10:53:59.529Z,53.00
2023-01-18T10:56:27.585Z,51.00
2023-01-18T10:59:00.330Z,51.00
2023-01-18T11:01:29.009Z,66.40
2023-01-18T11:04:06.244Z,52.00
2023-01-18T11:06:48.718Z,56.60
2023-01-18T11:09:34.879Z,53.80
2023-01-18T11:12:35.168Z,55.60
2023-01-18T11:15:14.718Z,53.10
2023-01-18T11:17:58.896Z,55.20
2023-01-18T11:20:48.087Z,57.30
2023-01-18T11:23:23.474Z,61.30
2023-01-18T11:26:13.943Z,68.00
2023-01-18T11:28:46.070Z,65.90
2023-01-18T11:31:16.290Z,63.30
2023-01-18T11:33:52.394Z,68.00
2023-01-18T11:36:22.438Z,67.70
2023-01-18T11:38:49.557Z,55.40
2023-01-18T11:41:23.629Z,55.40
2023-01-18T11:44:06.929Z,56.70
2023-01-18T11:46:43.024Z,57.50
2023-01-18T11:49:10.022Z,66.20
2023-01-18T11:51:56.228Z,68.30
2023-01-18T11:55:01.120Z,66.90
2023-01-18T11:57:30.590Z,58.40
2023-01-18T12:00:00.978Z,61.50
2023-01-18T12:03:04.968Z,60.60
2023-01-18T12:05:55.313Z,56.10
2023-01-18T12:08:50.252Z,58.60
2023-01-18T12:11:49.084Z,58.50
2023-01-18T12:14:45.198Z,58.60
2023-01-18T12:17:35.346Z,59.10
2023-01-18T12:20:40.768Z,55.70
2023-01-18T12:23:13.660Z,67.10
2023-01-18T12:25:49.160Z,63.00
2023-01-18T12:28:48.422Z,58.40
2023-01-18T12:31:22.333Z,55.90
2023-01-18T12:34:06.643Z,62.90
2023-01-18T12:36:47.226Z,53.30
2023-01-18T12:39:54.144Z,57.20
2023-01-18T12:42:30.371Z,57.20
2023-01-18T12:45:15.935Z,69.30
2023-01-18T12:47:59.948Z,61.90
2023-01-18T12:50:39.405Z,58.20
2023-01-18T12:53:15.383Z,59.60
2023-01-18T12:55:46.523Z,57.00
2023-01-18T12:58:26.822Z,59.40
2023-01-18T13:01:07.762Z,66.10
2023-01-18T13:03:44.515Z,62.30
2023-01-18T13:06:13.528Z,63.70
2023-01-18T13:09:26.280Z,65.60
2023-01-18T13:11:54.538Z,66.60
2023-01-18T13:14:33.799Z,56.40
2023-01-18T13:18:23.827Z,62.80
2023-01-18T13:21:01.227Z,64.50
2023-01-18T13:23:54.171Z,62.10
2023-01-18T13:28:49.014Z,56.30
2023-01-18T13:31:16.589Z,60.60
2023-01-18T13:33:48.471Z,58.80
2023-01-18T13:36:20.283Z,57.30
2023-01-18T13:39:14.068Z,62.40
2023-01-18T13:42:04.275Z,61.60
2023-01-18T13:44:37.646Z,67.80
2023-01-18T13:47:47.103Z,64.40
2023-01-18T13:50:34.717Z,59.60
2023-01-18T13:53:14.235Z,73.60
2023-01-18T13:55:48.836Z,73.50
2023-01-18T13:58:27.610Z,71.90
2023-01-18T14:00:58.785Z,89.10
2023-01-18T14:03:31.773Z,81.20
2023-01-18T14:06:09.556Z,68.00
2023-01-18T14:08:39.985Z,61.00
2023-01-18T14:11:10.851Z,67.20
2023-01-18T14:13:50.170Z,61.20
2023-01-18T14:16:21.562Z,62.50
2023-01-18T14:18:52.243Z,58.20
2023-01-18T14:21:55.518Z,68.50
2023-01-18T14:24:50.926Z,60.00
2023-01-18T14:27:22.582Z,61.30
2023-01-18T14:30:04.606Z,60.40
2023-01-18T14:32:38.840Z,54.60
2023-01-18T14:35:25.586Z,60.20
2023-01-18T14:37:54.300Z,51.20
2023-01-18T14:40:26.875Z,58.70
2023-01-18T14:43:05.690Z,51.30
2023-01-18T14:45:39.306Z,54.30
2023-01-18T14:48:12.898Z,62.50
2023-01-18T14:50:48.932Z,53.90
2023-01-18T14:53:21.717Z,49.50
2023-01-18T14:56:15.166Z,51.40
2023-01-18T14:58:51.192Z,55.50
2023-01-18T15:01:36.523Z,74.50
2023-01-18T15:04:07.295Z,78.20
2023-01-18T15:06:47.172Z,69.20
2023-01-18T15:09:15.302Z,52.90
2023-01-18T15:11:44.858Z,56.70
2023-01-18T15:14:25.743Z,49.50
2023-01-18T15:16:56.131Z,49.40
2023-01-18T15:19:44.530Z,51.60
2023-01-18T15:22:15.565Z,52.70
2023-01-18T15:24:45.599Z,50.40
2023-01-18T15:27:15.813Z,59.00
2023-01-18T15:29:48.980Z,52.60
2023-01-18T15:32:21.073Z,50.70
2023-01-18T15:34:50.860Z,53.50
2023-01-18T15:37:25.298Z,47.50
2023-01-18T15:40:07.060Z,49.00
2023-01-18T15:42:47.263Z,53.80
2023-01-18T15:45:21.092Z,56.90
2023-01-18T15:47:51.297Z,61.80
2023-01-18T15:50:20.942Z,51.50
2023-01-18T15:53:02.191Z,56.40
2023-01-18T15:55:48.211Z,47.90
2023-01-18T15:58:43.023Z,47.60
2023-01-18T16:01:13.369Z,51.50
2023-01-18T16:03:53.967Z,52.90
2023-01-18T16:06:21.272Z,57.70
2023-01-18T16:09:12.671Z,55.40
2023-01-18T16:11:54.810Z,57.80
2023-01-18T16:14:28.315Z,65.70
2023-01-18T16:17:07.036Z,51.90
2023-01-18T16:19:43.667Z,66.00
2023-01-18T16:22:34.179Z,62.50
2023-01-18T16:25:10.709Z,67.40
2023-01-18T16:27:50.593Z,64.20
2023-01-18T16:30:25.639Z,52.90
2023-01-18T16:32:53.457Z,57.70
2023-01-18T16:35:22.977Z,63.90
2023-01-18T16:37:50.743Z,54.10
2023-01-18T16:40:23.407Z,50.50
2023-01-18T16:43:05.831Z,60.50
2023-01-18T16:45:38.216Z,51.70
2023-01-18T16:48:06.356Z,54.30
2023-01-18T16:50:33.541Z,59.30
2023-01-18T16:53:00.608Z,62.10
2023-01-18T16:55:27.697Z,50.00
2023-01-18T16:57:54.772Z,62.60
2023-01-18T17:00:26.252Z,57.80
2023-01-18T17:02:53.714Z,58.50
2023-01-18T17:05:21.065Z,66.00
2023-01-18T17:07:48.240Z,44.70
2023-01-18T17:10:29.270Z,52.40
2023-01-18T17:12:56.418Z,54.10
2023-01-18T17:15:23.603Z,58.70
2023-01-18T17:17:50.645Z,47.90
2023-01-18T17:20:21.192Z,62.70
2023-01-18T17:22:50.658Z,56.20
2023-01-18T17:25:18.681Z,58.20
2023-01-18T17:27:45.961Z,57.00
2023-01-18T17:30:16.283Z,54.80
2023-01-18T17:32:43.605Z,56.40
2023-01-18T17:35:11.474Z,52.80
2023-01-18T17:40:19.554Z,57.80
2023-01-18T17:42:50.071Z,54.80
2023-01-18T17:45:17.509Z,58.50
2023-01-18T17:47:44.909Z,53.70
2023-01-18T17:50:16.651Z,57.00
2023-01-18T17:52:43.726Z,54.70
2023-01-18T17:55:14.346Z,59.00
2023-01-18T17:57:43.236Z,56.90
2023-01-18T18:00:13.910Z,53.40
2023-01-18T18:02:41.557Z,61.30
2023-01-18T18:05:10.192Z,54.50
2023-01-18T18:07:37.403Z,55.20
2023-01-18T18:10:05.976Z,63.00
2023-01-18T18:12:35.008Z,54.40
2023-01-18T18:15:03.109Z,54.10
2023-01-18T18:17:32.118Z,53.00
2023-01-18T18:20:00.286Z,56.40
2023-01-18T18:22:28.026Z,51.00
2023-01-18T18:24:55.329Z,52.40
2023-01-18T18:27:24.772Z,53.60
2023-01-18T18:29:54.311Z,54.50
2023-01-18T18:32:21.365Z,56.40
2023-01-18T18:34:48.614Z,61.30
2023-01-18T18:37:16.327Z,52.50
2023-01-18T18:39:43.827Z,57.90
2023-01-18T18:42:11.488Z,53.10
2023-01-18T18:44:38.819Z,56.60
2023-01-18T18:47:07.670Z,50.70
2023-01-18T18:49:35.228Z,54.20
2023-01-18T18:52:02.466Z,58.30
2023-01-18T18:54:29.773Z,53.10
2023-01-18T18:56:57.394Z,54.70
2023-01-18T18:59:25.956Z,62.10
2023-01-18T19:01:56.058Z,62.70
2023-01-18T19:04:23.402Z,57.00
2023-01-18T19:06:51.706Z,56.50
2023-01-18T19:09:20.357Z,55.70
2023-01-18T19:11:55.099Z,59.20
2023-01-18T19:14:26.948Z,48.90
2023-01-18T19:16:54.684Z,56.40
2023-01-18T19:19:24.293Z,64.60
2023-01-18T19:21:53.661Z,64.20
2023-01-18T19:24:21.319Z,77.00
2023-01-18T19:26:48.685Z,72.40
2023-01-18T19:29:16.863Z,81.40
2023-01-18T19:31:44.225Z,77.90
2023-01-18T19:34:11.833Z,75.20
2023-01-18T19:36:39.418Z,55.40
2023-01-18T19:39:09.338Z,61.40
2023-01-18T19:41:42.997Z,56.60
2023-01-18T19:44:14.318Z,57.80
2023-01-18T19:46:41.608Z,59.30
2023-01-18T19:49:09.701Z,58.70
2023-01-18T19:51:41.288Z,51.60
2023-01-18T19:54:11.698Z,57.00
2023-01-18T19:56:39.121Z,55.30
2023-01-18T19:59:08.329Z,58.60
2023-01-18T20:01:37.290Z,58.10
2023-01-18T20:04:06.639Z,59.30
2023-01-18T20:06:35.521Z,62.00
2023-01-18T20:09:04.034Z,52.20
2023-01-18T20:11:33.054Z,54.70
2023-01-18T20:14:00.802Z,59.10
2023-01-18T20:16:28.462Z,55.30
2023-01-18T20:18:56.325Z,58.70
2023-01-18T20:21:24.040Z,54.50
2023-01-18T20:23:51.532Z,56.80
2023-01-18T20:26:31.262Z,62.00
2023-01-18T20:29:07.187Z,56.40
2023-01-18T20:31:36.584Z,54.50
2023-01-18T20:34:04.979Z,59.30
2023-01-18T20:36:35.128Z,58.00
2023-01-18T20:39:04.257Z,56.50
2023-01-18T20:41:31.727Z,54.10
2023-01-18T20:43:59.031Z,51.50
2023-01-18T20:46:26.862Z,55.70
2023-01-18T20:48:54.223Z,50.50
2023-01-18T20:51:22.410Z,56.10
2023-01-18T20:53:49.904Z,54.60
2023-01-18T20:56:28.819Z,56.10
2023-01-18T20:58:58.517Z,52.30
2023-01-18T21:01:32.013Z,55.70
2023-01-18T21:04:02.229Z,58.60
2023-01-18T21:06:30.597Z,58.40
2023-01-18T21:08:59.637Z,56.20
2023-01-18T21:11:27.780Z,52.60
2023-01-18T21:13:56.954Z,59.00
2023-01-18T21:16:24.963Z,56.80
2023-01-18T21:18:56.708Z,62.70
2023-01-18T21:21:27.611Z,54.90
2023-01-18T21:23:55.340Z,52.60
2023-01-18T21:26:23.099Z,49.10
2023-01-18T21:28:50.487Z,54.90
2023-01-18T21:31:18.359Z,48.30
2023-01-18T21:33:46.442Z,57.50
2023-01-18T21:36:17.772Z,45.40
2023-01-18T21:38:45.135Z,50.20
2023-01-18T21:41:31.751Z,51.60
2023-01-18T21:44:17.736Z,49.10
2023-01-18T21:46:47.036Z,49.20
2023-01-18T21:49:47.432Z,53.00
2023-01-18T21:52:38.386Z,54.90
2023-01-18T21:55:06.298Z,55.30
2023-01-18T21:57:33.846Z,52.20
2023-01-18T22:00:01.071Z,51.00
2023-01-18T22:02:28.601Z,53.40
2023-01-18T22:05:03.640Z,49.10
2023-01-18T22:07:34.245Z,48.60
2023-01-18T22:10:07.007Z,50.00
2023-01-18T22:12:36.333Z,50.80
2023-01-18T22:15:05.322Z,54.90
2023-01-18T22:17:32.516Z,47.50
2023-01-18T22:20:00.490Z,50.40
2023-01-18T22:22:28.361Z,45.90
2023-01-18T22:24:56.985Z,48.10
2023-01-18T22:27:24.345Z,49.20
2023-01-18T22:29:52.116Z,44.90
2023-01-18T22:32:19.711Z,46.40
2023-01-18T22:34:46.823Z,44.40
2023-01-18T22:37:14.173Z,52.60
2023-01-18T22:39:41.256Z,46.80
2023-01-18T22:42:08.405Z,54.50
2023-01-18T22:44:35.704Z,45.80
2023-01-18T22:47:03.115Z,46.90
2023-01-18T22:49:30.234Z,48.90
2023-01-18T22:51:57.279Z,50.30
2023-01-18T22:54:24.432Z,51.10
2023-01-18T22:56:51.638Z,44.00
2023-01-18T22:59:18.749Z,50.00
2023-01-18T23:01:46.003Z,49.50
2023-01-18T23:04:13.143Z,48.80
2023-01-18T23:06:46.991Z,46.20
2023-01-18T23:09:16.075Z,39.70
2023-01-18T23:11:45.465Z,46.00
2023-01-18T23:14:31.201Z,49.40
2023-01-18T23:17:17.030Z,46.80
2023-01-18T23:19:44.219Z,47.80
2023-01-18T23:22:11.557Z,49.70
2023-01-18T23:24:39.682Z,48.50
2023-01-18T23:27:12.174Z,51.70
2023-01-18T23:32:07.741Z,46.60
2023-01-18T23:34:35.357Z,47.90
2023-01-18T23:37:02.638Z,47.50
2023-01-18T23:39:48.495Z,49.00
2023-01-18T23:42:34.316Z,47.70
2023-01-18T23:45:20.355Z,48.70
2023-01-18T23:48:06.286Z,44.00
2023-01-18T23:50:51.918Z,45.50
2023-01-18T23:53:37.524Z,49.70
2023-01-18T23:56:04.839Z,51.90
2023-01-18T23:58:32.046Z,46.70
